Time,TemperatureF,DewpointF,PressureIn,WindDirection,WindDirectionDegrees,WindSpeedMPH,WindSpeedGustMPH,Humidity,HourlyPrecipIn,Conditions,Clouds,dailyrainin,SolarRadiationWatts/m^2,SoftwareType,DateUTC
2013-05-04 00:01:00,36.1,26.2,30.03,North,355,2.0,3.0,67,0.00,,,0.00,0,Wunderground v.1.15,2013-05-04 06:01:00,
2013-05-04 00:20:00,35.8,26.3,30.02,WNW,300,3.0,4.0,68,0.00,,,0.00,0,Wunderground v.1.15,2013-05-04 06:20:00,
2013-05-04 00:30:00,35.9,26.0,30.02,WNW,292,4.0,4.0,67,0.00,,,0.00,0,Wunderground v.1.15,2013-05-04 06:30:00,
2013-05-04 00:40:00,36.0,26.8,30.01,WNW,294,2.0,2.0,69,0.00,,,0.00,0,Wunderground v.1.15,2013-05-04 06:40:00,
2013-05-04 00:50:00,36.1,26.6,30.01,NNW,342,2.0,5.0,68,0.00,,,0.00,0,Wunderground v.1.15,2013-05-04 06:50:00,
2013-05-04 01:00:00,36.1,25.8,30.02,NNE,22,5.0,5.0,66,0.00,,,0.00,0,Wunderground v.1.15,2013-05-04 07:00:00,
2013-05-04 01:10:00,36.7,26.0,30.02,NNE,26,3.0,3.0,65,0.00,,,0.00,0,Wunderground v.1.15,2013-05-04 07:10:00,
2013-05-04 01:20:00,36.8,26.5,30.01,NNE,20,1.0,1.0,66,0.00,,,0.00,0,Wunderground v.1.15,2013-05-04 07:20:00,
2013-05-04 01:30:00,36.0,26.5,30.01,NW,315,0.0,2.0,68,0.00,,,0.00,0,Wunderground v.1.15,2013-05-04 07:30:00,
2013-05-04 01:40:00,35.7,26.5,30.01,NW,315,0.0,0.0,69,0.00,,,0.00,0,Wunderground v.1.15,2013-05-04 07:40:00,
2013-05-04 01:50:00,35.9,26.7,30.01,NW,315,0.0,0.0,69,0.00,,,0.00,0,Wunderground v.1.15,2013-05-04 07:50:00,
2013-05-04 02:00:00,35.8,27.3,30.01,NW,315,0.0,0.0,71,0.00,,,0.00,0,Wunderground v.1.15,2013-05-04 08:00:00,
2013-05-04 02:11:00,35.7,26.2,30.00,NNW,348,2.0,2.0,68,0.00,,,0.00,0,Wunderground v.1.15,2013-05-04 08:11:00,
2013-05-04 02:20:00,35.9,26.4,30.00,North,9,1.0,1.0,68,0.00,,,0.00,0,Wunderground v.1.15,2013-05-04 08:20:00,
2013-05-04 02:30:00,35.7,25.4,30.00,North,9,0.0,0.0,66,0.00,,,0.00,0,Wunderground v.1.15,2013-05-04 08:30:00,
2013-05-04 02:40:00,35.7,25.4,29.99,NW,324,1.0,3.0,66,0.00,,,0.00,0,Wunderground v.1.15,2013-05-04 08:40:00,
2013-05-04 02:50:00,35.6,25.0,29.99,NW,317,4.0,4.0,65,0.00,,,0.00,0,Wunderground v.1.15,2013-05-04 08:50:00,
2013-05-04 03:01:00,35.5,24.5,29.99,NW,319,2.0,2.0,64,0.00,,,0.00,0,Wunderground v.1.15,2013-05-04 09:01:00,
2013-05-04 03:10:00,35.4,24.8,29.99,NW,309,0.0,1.0,65,0.00,,,0.00,0,Wunderground v.1.15,2013-05-04 09:10:00,
2013-05-04 03:20:00,35.2,24.2,29.99,NW,310,4.0,4.0,64,0.00,,,0.00,0,Wunderground v.1.15,2013-05-04 09:20:00,
2013-05-04 03:30:00,35.0,24.0,29.99,NW,311,4.0,6.0,64,0.00,,,0.00,0,Wunderground v.1.15,2013-05-04 09:30:00,
2013-05-04 03:40:00,34.9,23.6,29.99,WNW,302,4.0,4.0,63,0.00,,,0.00,0,Wunderground v.1.15,2013-05-04 09:40:00,
2013-05-04 03:50:00,34.9,23.6,29.99,WNW,292,5.0,5.0,63,0.00,,,0.00,0,Wunderground v.1.15,2013-05-04 09:50:00,
2013-05-04 04:01:00,35.1,23.8,29.99,NW,305,3.0,5.0,63,0.00,,,0.00,0,Wunderground v.1.15,2013-05-04 10:01:00,
2013-05-04 04:10:00,35.2,24.6,29.99,WNW,298,3.0,3.0,65,0.00,,,0.00,0,Wunderground v.1.15,2013-05-04 10:10:00,
2013-05-04 04:20:00,35.2,25.0,29.99,WNW,299,1.0,3.0,66,0.00,,,0.00,0,Wunderground v.1.15,2013-05-04 10:20:00,
2013-05-04 04:30:00,35.3,25.1,29.99,NW,304,3.0,4.0,66,0.00,,,0.00,0,Wunderground v.1.15,2013-05-04 10:30:00,
2013-05-04 04:40:00,35.5,25.3,29.98,NW,315,4.0,4.0,66,0.00,,,0.00,0,Wunderground v.1.15,2013-05-04 10:40:00,
2013-05-04 04:50:00,35.4,26.2,29.99,NW,315,1.0,1.0,69,0.00,,,0.00,0,Wunderground v.1.15,2013-05-04 10:50:00,
2013-05-04 05:01:00,35.5,25.6,29.98,WNW,297,2.0,2.0,67,0.00,,,0.00,0,Wunderground v.1.15,2013-05-04 11:01:00,
2013-05-04 05:10:00,35.5,25.3,29.98,NW,305,2.0,2.0,66,0.00,,,0.00,0,Wunderground v.1.15,2013-05-04 11:10:00,
2013-05-04 05:20:00,35.5,25.6,29.98,NW,309,2.0,2.0,67,0.00,,,0.00,0,Wunderground v.1.15,2013-05-04 11:20:00,
2013-05-04 05:30:00,35.5,25.6,29.98,NW,310,1.0,4.0,67,0.00,,,0.00,0,Wunderground v.1.15,2013-05-04 11:30:00,
2013-05-04 05:40:00,35.4,26.2,29.98,NW,308,3.0,4.0,69,0.00,,,0.00,0,Wunderground v.1.15,2013-05-04 11:40:00,
2013-05-04 06:00:00,35.5,26.0,29.99,NNW,338,2.0,6.0,68,0.00,,,0.00,0,Wunderground v.1.15,2013-05-04 12:00:00,
2013-05-04 06:10:00,35.5,26.0,29.99,NNE,26,1.0,1.0,68,0.00,,,0.00,7,Wunderground v.1.15,2013-05-04 12:10:00,
2013-05-04 06:30:00,35.9,27.1,29.99,NNE,26,0.0,0.0,70,0.00,,,0.00,14,Wunderground v.1.15,2013-05-04 12:30:00,
2013-05-04 06:40:00,35.8,27.0,29.99,NNE,23,0.0,0.0,70,0.00,,,0.00,23,Wunderground v.1.15,2013-05-04 12:40:00,
2013-05-04 06:50:00,35.6,27.5,30.00,NNW,337,1.0,1.0,72,0.00,,,0.00,42,Wunderground v.1.15,2013-05-04 12:50:00,
2013-05-04 07:00:00,35.3,27.5,30.00,NW,304,3.0,5.0,73,0.00,,,0.00,84,Wunderground v.1.15,2013-05-04 13:00:00,
2013-05-04 07:11:00,35.5,27.7,29.99,NW,319,3.0,3.0,73,0.00,,,0.00,162,Wunderground v.1.15,2013-05-04 13:11:00,
2013-05-04 07:20:00,36.5,28.3,30.00,WNW,300,3.0,3.0,72,0.00,,,0.00,248,Wunderground v.1.15,2013-05-04 13:20:00,
2013-05-04 07:30:00,38.0,27.3,30.00,NW,325,2.0,2.0,65,0.00,,,0.00,287,Wunderground v.1.15,2013-05-04 13:30:00,
2013-05-04 07:40:00,39.1,27.9,30.00,NW,306,0.0,0.0,64,0.00,,,0.00,178,Wunderground v.1.15,2013-05-04 13:40:00,
2013-05-04 07:50:00,39.1,26.4,30.00,South,186,1.0,1.0,60,0.00,,,0.00,135,Wunderground v.1.15,2013-05-04 13:50:00,
2013-05-04 08:00:00,38.7,26.0,30.00,SW,225,0.0,0.0,60,0.00,,,0.00,162,Wunderground v.1.15,2013-05-04 14:00:00,
2013-05-04 08:11:00,39.1,26.0,30.00,SSW,203,0.0,0.0,59,0.00,,,0.00,193,Wunderground v.1.15,2013-05-04 14:11:00,
2013-05-04 08:20:00,39.2,26.9,30.00,ESE,117,0.0,4.0,61,0.00,,,0.00,190,Wunderground v.1.15,2013-05-04 14:20:00,
2013-05-04 08:30:00,39.4,25.8,30.00,North,5,1.0,1.0,58,0.00,,,0.00,237,Wunderground v.1.15,2013-05-04 14:30:00,
2013-05-04 08:41:00,39.9,26.3,30.00,East,96,6.0,6.0,58,0.00,,,0.00,292,Wunderground v.1.15,2013-05-04 14:41:00,
2013-05-04 08:50:00,40.1,26.9,30.00,ESE,103,4.0,4.0,59,0.00,,,0.00,339,Wunderground v.1.15,2013-05-04 14:50:00,
2013-05-04 09:10:00,39.9,26.7,30.00,East,82,1.0,1.0,59,0.00,,,0.00,241,Wunderground v.1.15,2013-05-04 15:10:00,
2013-05-04 09:20:00,40.3,26.7,29.99,East,88,1.0,1.0,58,0.00,,,0.00,209,Wunderground v.1.15,2013-05-04 15:20:00,
2013-05-04 09:30:00,40.1,25.6,30.00,SSE,149,3.0,3.0,56,0.00,,,0.00,172,Wunderground v.1.15,2013-05-04 15:30:00,
2013-05-04 09:40:00,40.1,25.6,29.99,ESE,123,5.0,9.0,56,0.00,,,0.00,163,Wunderground v.1.15,2013-05-04 15:40:00,
2013-05-04 09:51:00,40.4,25.1,30.00,SE,132,11.0,11.0,54,0.00,,,0.00,267,Wunderground v.1.15,2013-05-04 15:51:00,
2013-05-04 10:00:00,40.5,24.7,30.00,East,101,12.0,12.0,53,0.00,,,0.00,353,Wunderground v.1.15,2013-05-04 16:00:00,
2013-05-04 10:10:00,41.8,25.0,30.00,ESE,113,11.0,11.0,51,0.00,,,0.00,438,Wunderground v.1.15,2013-05-04 16:10:00,
2013-05-04 10:20:00,41.8,24.0,30.01,East,98,10.0,10.0,49,0.00,,,0.00,464,Wunderground v.1.15,2013-05-04 16:20:00,
2013-05-04 10:40:00,43.8,24.3,30.00,SE,126,11.0,11.0,46,0.00,,,0.00,1079,Wunderground v.1.15,2013-05-04 16:40:00,
2013-05-04 10:50:00,45.7,26.6,30.00,East,100,13.0,22.0,47,0.00,,,0.00,1143,Wunderground v.1.15,2013-05-04 16:50:00,
2013-05-04 11:01:00,45.2,25.6,30.00,ESE,110,13.0,16.0,46,0.00,,,0.00,967,Wunderground v.1.15,2013-05-04 17:01:00,
2013-05-04 11:10:00,44.5,23.9,30.00,East,93,11.0,11.0,44,0.00,,,0.00,450,Wunderground v.1.15,2013-05-04 17:10:00,
2013-05-04 11:20:00,44.7,23.0,30.00,SE,125,11.0,15.0,42,0.00,,,0.00,425,Wunderground v.1.15,2013-05-04 17:20:00,
2013-05-04 11:30:00,45.1,23.9,30.00,ESE,116,12.0,17.0,43,0.00,,,0.00,851,Wunderground v.1.15,2013-05-04 17:30:00,
2013-05-04 11:40:00,44.3,23.7,30.00,East,86,11.0,11.0,44,0.00,,,0.00,1260,Wunderground v.1.15,2013-05-04 17:40:00,
2013-05-04 11:51:00,46.2,23.2,30.01,East,97,13.0,15.0,40,0.00,,,0.00,663,Wunderground v.1.15,2013-05-04 17:51:00,
2013-05-04 12:00:00,45.1,22.8,30.00,SE,124,11.0,11.0,41,0.00,,,0.00,473,Wunderground v.1.15,2013-05-04 18:00:00,
2013-05-04 12:10:00,44.8,24.7,30.01,ESE,104,11.0,11.0,45,0.00,,,0.00,438,Wunderground v.1.15,2013-05-04 18:10:00,
2013-05-04 12:20:00,44.9,23.7,30.00,ESE,112,9.0,9.0,43,0.00,,,0.00,385,Wunderground v.1.15,2013-05-04 18:20:00,
2013-05-04 12:30:00,46.0,23.6,30.00,SE,136,10.0,11.0,41,0.00,,,0.00,408,Wunderground v.1.15,2013-05-04 18:30:00,
2013-05-04 12:50:00,46.0,23.6,30.00,SE,130,11.0,11.0,41,0.00,,,0.00,536,Wunderground v.1.15,2013-05-04 18:50:00,
2013-05-04 13:00:00,47.3,26.5,30.00,SE,126,12.0,16.0,44,0.00,,,0.00,1283,Wunderground v.1.15,2013-05-04 19:00:00,
2013-05-04 13:10:00,45.0,23.3,30.00,SE,137,12.0,12.0,42,0.00,,,0.00,381,Wunderground v.1.15,2013-05-04 19:10:00,
2013-05-04 13:20:00,44.9,24.3,29.99,SE,128,12.0,14.0,44,0.00,,,0.00,241,Wunderground v.1.15,2013-05-04 19:20:00,
2013-05-04 13:31:00,44.3,23.7,29.99,East,87,9.0,22.0,44,0.00,,,0.00,248,Wunderground v.1.15,2013-05-04 19:31:00,
2013-05-04 13:40:00,45.1,23.9,29.99,ENE,76,13.0,13.0,43,0.00,,,0.00,232,Wunderground v.1.15,2013-05-04 19:40:00,
2013-05-04 13:50:00,45.2,25.6,29.99,East,88,13.0,13.0,46,0.00,,,0.00,287,Wunderground v.1.15,2013-05-04 19:50:00,
2013-05-04 14:00:00,45.0,27.0,30.00,East,88,13.0,14.0,49,0.00,,,0.00,1079,Wunderground v.1.15,2013-05-04 20:00:00,
2013-05-04 14:10:00,44.3,24.3,30.00,East,87,14.0,14.0,45,0.00,,,0.00,274,Wunderground v.1.15,2013-05-04 20:10:00,
2013-05-04 14:20:00,44.3,25.3,30.00,ESE,113,12.0,12.0,47,0.00,,,0.00,450,Wunderground v.1.15,2013-05-04 20:20:00,
2013-05-04 14:30:00,43.8,26.8,30.01,ENE,71,12.0,12.0,51,0.00,,,0.00,436,Wunderground v.1.15,2013-05-04 20:30:00,
2013-05-04 14:40:00,44.0,27.0,30.02,ESE,109,12.0,13.0,51,0.00,,,0.00,345,Wunderground v.1.15,2013-05-04 20:40:00,
2013-05-04 14:50:00,43.2,26.7,30.02,East,100,12.0,13.0,52,0.00,,,0.00,311,Wunderground v.1.15,2013-05-04 20:50:00,
2013-05-04 15:10:00,44.0,28.0,30.02,ESE,103,13.0,14.0,53,0.00,,,0.00,418,Wunderground v.1.15,2013-05-04 21:10:00,
2013-05-04 15:30:00,43.6,27.6,30.01,ESE,117,12.0,13.0,53,0.00,,,0.00,443,Wunderground v.1.15,2013-05-04 21:30:00,
2013-05-04 15:40:00,43.4,27.4,30.02,East,96,12.0,12.0,53,0.00,,,0.00,269,Wunderground v.1.15,2013-05-04 21:40:00,
2013-05-04 15:50:00,42.9,27.8,30.02,ESE,116,10.0,11.0,55,0.00,,,0.00,216,Wunderground v.1.15,2013-05-04 21:50:00,
2013-05-04 16:00:00,42.7,27.6,30.02,ESE,107,11.0,11.0,55,0.00,,,0.00,330,Wunderground v.1.15,2013-05-04 22:00:00,
2013-05-04 16:10:00,42.7,27.6,30.02,ENE,74,11.0,12.0,55,0.00,,,0.00,536,Wunderground v.1.15,2013-05-04 22:10:00,
2013-05-04 16:20:00,42.6,27.1,30.02,East,90,10.0,10.0,54,0.00,,,0.00,232,Wunderground v.1.15,2013-05-04 22:20:00,
2013-05-04 16:30:00,42.3,26.8,30.02,ESE,113,10.0,10.0,54,0.00,,,0.00,243,Wunderground v.1.15,2013-05-04 22:30:00,
2013-05-04 16:40:00,42.2,27.2,30.02,ESE,105,11.0,11.0,55,0.00,,,0.00,221,Wunderground v.1.15,2013-05-04 22:40:00,
2013-05-04 16:50:00,42.4,26.9,30.02,SE,134,8.0,14.0,54,0.00,,,0.00,272,Wunderground v.1.15,2013-05-04 22:50:00,
2013-05-04 17:00:00,42.1,27.9,30.02,ESE,103,12.0,14.0,57,0.00,,,0.00,169,Wunderground v.1.15,2013-05-04 23:00:00,
2013-05-04 17:10:00,41.3,27.6,30.03,East,98,13.0,13.0,58,0.00,,,0.00,100,Wunderground v.1.15,2013-05-04 23:10:00,
2013-05-04 17:20:00,41.5,28.2,30.03,East,88,13.0,15.0,59,0.00,,,0.00,97,Wunderground v.1.15,2013-05-04 23:20:00,
2013-05-04 17:30:00,41.2,28.4,30.03,ESE,119,12.0,12.0,60,0.00,,,0.00,65,Wunderground v.1.15,2013-05-04 23:30:00,
2013-05-04 17:40:00,41.0,29.0,30.04,ESE,103,12.0,20.0,62,0.00,,,0.00,86,Wunderground v.1.15,2013-05-04 23:40:00,
2013-05-04 17:50:00,40.7,28.7,30.04,SE,133,12.0,13.0,62,0.00,,,0.00,86,Wunderground v.1.15,2013-05-04 23:50:00,
2013-05-04 18:00:00,40.3,28.7,30.04,East,98,12.0,14.0,63,0.00,,,0.00,93,Wunderground v.1.15,2013-05-05 00:00:00,
2013-05-04 18:10:00,40.1,28.5,30.05,SE,140,11.0,11.0,63,0.00,,,0.00,60,Wunderground v.1.15,2013-05-05 00:10:00,
2013-05-04 18:30:00,39.5,28.3,30.06,ESE,114,10.0,10.0,64,0.00,,,0.00,44,Wunderground v.1.15,2013-05-05 00:30:00,
2013-05-04 18:40:00,39.2,28.4,30.05,SE,126,8.0,8.0,65,0.00,,,0.00,54,Wunderground v.1.15,2013-05-05 00:40:00,
2013-05-04 18:50:00,38.9,28.1,30.05,ESE,103,9.0,12.0,65,0.00,,,0.00,62,Wunderground v.1.15,2013-05-05 00:50:00,
2013-05-04 19:01:00,38.5,27.7,30.06,ESE,103,9.0,9.0,65,0.00,,,0.00,44,Wunderground v.1.15,2013-05-05 01:01:00,
2013-05-04 19:10:00,38.3,27.9,30.06,ESE,114,8.0,8.0,66,0.00,,,0.00,25,Wunderground v.1.15,2013-05-05 01:10:00,
2013-05-04 19:20:00,38.0,27.6,30.07,ESE,116,8.0,12.0,66,0.00,,,0.00,12,Wunderground v.1.15,2013-05-05 01:20:00,
2013-05-04 19:31:00,37.8,27.5,30.08,ESE,109,7.0,9.0,66,0.00,,,0.00,9,Wunderground v.1.15,2013-05-05 01:31:00,
2013-05-04 19:40:00,37.5,27.5,30.08,ESE,103,6.0,8.0,67,0.00,,,0.00,5,Wunderground v.1.15,2013-05-05 01:40:00,
2013-05-04 19:50:00,37.4,27.4,30.08,SE,136,5.0,5.0,67,0.00,,,0.00,0,Wunderground v.1.15,2013-05-05 01:50:00,
2013-05-04 20:00:00,37.4,27.4,30.09,East,92,2.0,2.0,67,0.00,,,0.00,0,Wunderground v.1.15,2013-05-05 02:00:00,
2013-05-04 20:10:00,37.1,27.2,30.09,East,96,2.0,2.0,67,0.00,,,0.00,0,Wunderground v.1.15,2013-05-05 02:10:00,
2013-05-04 20:20:00,36.9,27.0,30.10,ENE,69,1.0,5.0,67,0.00,,,0.00,0,Wunderground v.1.15,2013-05-05 02:20:00,
2013-05-04 20:30:00,36.6,27.0,30.10,ESE,115,2.0,2.0,68,0.00,,,0.00,0,Wunderground v.1.15,2013-05-05 02:30:00,
2013-05-04 20:40:00,36.2,27.0,30.11,ESE,123,3.0,3.0,69,0.00,,,0.00,0,Wunderground v.1.15,2013-05-05 02:40:00,
2013-05-04 21:01:00,35.9,26.7,30.11,East,92,4.0,4.0,69,0.00,,,0.00,0,Wunderground v.1.15,2013-05-05 03:01:00,
2013-05-04 21:11:00,35.9,26.4,30.11,NE,55,5.0,5.0,68,0.00,,,0.00,0,Wunderground v.1.15,2013-05-05 03:11:00,
2013-05-04 21:20:00,36.0,27.2,30.12,ENE,64,3.0,7.0,70,0.00,,,0.00,0,Wunderground v.1.15,2013-05-05 03:20:00,
2013-05-04 21:30:00,35.9,26.4,30.12,ENE,75,4.0,7.0,68,0.00,,,0.00,0,Wunderground v.1.15,2013-05-05 03:30:00,
2013-05-04 21:40:00,35.7,26.2,30.13,NE,46,6.0,6.0,68,0.00,,,0.00,0,Wunderground v.1.15,2013-05-05 03:40:00,
2013-05-04 21:50:00,35.8,26.6,30.13,NNE,13,5.0,5.0,69,0.00,,,0.00,0,Wunderground v.1.15,2013-05-05 03:50:00,
2013-05-04 22:00:00,35.8,25.9,30.13,ENE,66,3.0,3.0,67,0.00,,,0.00,0,Wunderground v.1.15,2013-05-05 04:00:00,
2013-05-04 22:21:00,36.0,26.1,30.13,NNW,342,0.0,0.0,67,0.00,,,0.00,0,Wunderground v.1.15,2013-05-05 04:21:00,
2013-05-04 22:30:00,36.2,26.3,30.13,NNW,342,0.0,0.0,67,0.00,,,0.00,0,Wunderground v.1.15,2013-05-05 04:30:00,
2013-05-04 22:40:00,35.9,26.4,30.13,ENE,69,0.0,0.0,68,0.00,,,0.00,0,Wunderground v.1.15,2013-05-05 04:40:00,
2013-05-04 22:50:00,35.7,26.5,30.13,ENE,58,2.0,3.0,69,0.00,,,0.00,0,Wunderground v.1.15,2013-05-05 04:50:00,
2013-05-04 23:10:00,35.0,26.2,30.13,NE,56,3.0,3.0,70,0.00,,,0.00,0,Wunderground v.1.15,2013-05-05 05:10:00,
2013-05-04 23:21:00,35.0,26.2,30.13,NE,53,2.0,2.0,70,0.00,,,0.00,0,Wunderground v.1.15,2013-05-05 05:21:00,
2013-05-04 23:30:00,34.8,26.0,30.13,NE,34,0.0,0.0,70,0.00,,,0.00,0,Wunderground v.1.15,2013-05-05 05:30:00,
2013-05-04 23:40:00,34.7,25.9,30.13,NW,319,0.0,0.0,70,0.00,,,0.00,0,Wunderground v.1.15,2013-05-05 05:40:00,